sensor_id;sensor_type;location;lat;lon;timestamp;temperature;humidity
22364;DHT22;11349;53.412;-1.328;2023-04-25T00:01:17;3.70;99.90
22364;DHT22;11349;53.412;-1.328;2023-04-25T00:03:44;3.70;99.90
22364;DHT22;11349;53.412;-1.328;2023-04-25T00:06:11;3.70;99.90
22364;DHT22;11349;53.412;-1.328;2023-04-25T00:08:37;3.60;99.90
22364;DHT22;11349;53.412;-1.328;2023-04-25T00:11:03;3.60;99.90
22364;DHT22;11349;53.412;-1.328;2023-04-25T00:13:29;3.60;99.90
22364;DHT22;11349;53.412;-1.328;2023-04-25T00:15:55;3.60;99.90
22364;DHT22;11349;53.412;-1.328;2023-04-25T00:18:22;3.60;99.90
22364;DHT22;11349;53.412;-1.328;2023-04-25T00:20:48;3.60;99.90
22364;DHT22;11349;53.412;-1.328;2023-04-25T00:23:14;3.50;99.90
22364;DHT22;11349;53.412;-1.328;2023-04-25T00:25:47;3.60;99.90
22364;DHT22;11349;53.412;-1.328;2023-04-25T00:28:13;3.50;99.90
22364;DHT22;11349;53.412;-1.328;2023-04-25T00:30:39;3.60;99.90
22364;DHT22;11349;53.412;-1.328;2023-04-25T00:33:06;3.60;99.90
22364;DHT22;11349;53.412;-1.328;2023-04-25T00:35:31;3.40;99.90
22364;DHT22;11349;53.412;-1.328;2023-04-25T00:37:57;3.40;99.90
22364;DHT22;11349;53.412;-1.328;2023-04-25T00:40:23;3.40;99.90
22364;DHT22;11349;53.412;-1.328;2023-04-25T00:42:49;3.40;99.90
22364;DHT22;11349;53.412;-1.328;2023-04-25T00:45:17;3.40;99.90
22364;DHT22;11349;53.412;-1.328;2023-04-25T00:47:43;3.40;99.90
22364;DHT22;11349;53.412;-1.328;2023-04-25T00:50:10;3.40;99.90
22364;DHT22;11349;53.412;-1.328;2023-04-25T00:52:40;3.30;99.90
22364;DHT22;11349;53.412;-1.328;2023-04-25T00:55:07;3.30;99.90
22364;DHT22;11349;53.412;-1.328;2023-04-25T00:57:33;3.30;99.90
22364;DHT22;11349;53.412;-1.328;2023-04-25T00:59:59;3.30;99.90
22364;DHT22;11349;53.412;-1.328;2023-04-25T01:02:26;3.20;99.90
22364;DHT22;11349;53.412;-1.328;2023-04-25T01:04:52;3.20;99.90
22364;DHT22;11349;53.412;-1.328;2023-04-25T01:07:18;3.20;99.90
22364;DHT22;11349;53.412;-1.328;2023-04-25T01:09:45;3.10;99.90
22364;DHT22;11349;53.412;-1.328;2023-04-25T01:12:11;3.00;99.90
22364;DHT22;11349;53.412;-1.328;2023-04-25T01:14:37;3.00;99.90
22364;DHT22;11349;53.412;-1.328;2023-04-25T01:17:03;3.10;99.90
22364;DHT22;11349;53.412;-1.328;2023-04-25T01:19:29;3.00;99.90
22364;DHT22;11349;53.412;-1.328;2023-04-25T01:21:56;3.00;99.90
22364;DHT22;11349;53.412;-1.328;2023-04-25T01:24:22;3.10;99.90
22364;DHT22;11349;53.412;-1.328;2023-04-25T01:26:48;3.10;99.90
22364;DHT22;11349;53.412;-1.328;2023-04-25T01:29:19;3.10;99.90
22364;DHT22;11349;53.412;-1.328;2023-04-25T01:31:46;3.00;99.90
22364;DHT22;11349;53.412;-1.328;2023-04-25T01:34:12;3.00;99.90
22364;DHT22;11349;53.412;-1.328;2023-04-25T01:36:39;3.00;99.90
22364;DHT22;11349;53.412;-1.328;2023-04-25T01:39:05;2.90;99.90
22364;DHT22;11349;53.412;-1.328;2023-04-25T01:41:34;2.90;99.90
22364;DHT22;11349;53.412;-1.328;2023-04-25T01:44:00;3.00;99.90
22364;DHT22;11349;53.412;-1.328;2023-04-25T01:46:26;3.00;99.90
22364;DHT22;11349;53.412;-1.328;2023-04-25T01:48:52;2.90;99.90
22364;DHT22;11349;53.412;-1.328;2023-04-25T01:51:18;2.90;99.90
22364;DHT22;11349;53.412;-1.328;2023-04-25T01:53:44;2.90;99.90
22364;DHT22;11349;53.412;-1.328;2023-04-25T01:56:10;2.90;99.90
22364;DHT22;11349;53.412;-1.328;2023-04-25T01:58:36;2.90;99.90
22364;DHT22;11349;53.412;-1.328;2023-04-25T02:01:04;2.90;99.90
22364;DHT22;11349;53.412;-1.328;2023-04-25T02:03:31;2.90;99.90
22364;DHT22;11349;53.412;-1.328;2023-04-25T02:05:57;2.80;99.90
22364;DHT22;11349;53.412;-1.328;2023-04-25T02:08:23;2.90;99.90
22364;DHT22;11349;53.412;-1.328;2023-04-25T02:10:48;2.90;99.90
22364;DHT22;11349;53.412;-1.328;2023-04-25T02:13:14;2.90;99.90
22364;DHT22;11349;53.412;-1.328;2023-04-25T02:15:40;2.90;99.90
22364;DHT22;11349;53.412;-1.328;2023-04-25T02:18:06;2.90;99.90
22364;DHT22;11349;53.412;-1.328;2023-04-25T02:20:32;2.90;99.90
22364;DHT22;11349;53.412;-1.328;2023-04-25T02:22:58;2.80;99.90
22364;DHT22;11349;53.412;-1.328;2023-04-25T02:25:24;2.80;99.90
22364;DHT22;11349;53.412;-1.328;2023-04-25T02:27:50;2.80;99.90
22364;DHT22;11349;53.412;-1.328;2023-04-25T02:30:17;2.80;99.90
22364;DHT22;11349;53.412;-1.328;2023-04-25T02:32:42;2.80;99.90
22364;DHT22;11349;53.412;-1.328;2023-04-25T02:35:09;2.80;99.90
22364;DHT22;11349;53.412;-1.328;2023-04-25T02:37:36;2.80;99.90
22364;DHT22;11349;53.412;-1.328;2023-04-25T02:40:02;2.80;99.90
22364;DHT22;11349;53.412;-1.328;2023-04-25T02:42:29;2.70;99.90
22364;DHT22;11349;53.412;-1.328;2023-04-25T02:44:55;2.60;99.90
22364;DHT22;11349;53.412;-1.328;2023-04-25T02:47:21;2.60;99.90
22364;DHT22;11349;53.412;-1.328;2023-04-25T02:49:47;2.60;99.90
22364;DHT22;11349;53.412;-1.328;2023-04-25T02:52:12;2.60;99.90
22364;DHT22;11349;53.412;-1.328;2023-04-25T02:54:39;2.60;99.90
22364;DHT22;11349;53.412;-1.328;2023-04-25T02:57:05;2.50;99.90
22364;DHT22;11349;53.412;-1.328;2023-04-25T02:59:31;2.60;99.90
22364;DHT22;11349;53.412;-1.328;2023-04-25T03:01:56;2.60;99.90
22364;DHT22;11349;53.412;-1.328;2023-04-25T03:04:22;2.60;99.90
22364;DHT22;11349;53.412;-1.328;2023-04-25T03:06:51;2.50;99.90
22364;DHT22;11349;53.412;-1.328;2023-04-25T03:09:17;2.50;99.90
22364;DHT22;11349;53.412;-1.328;2023-04-25T03:11:44;2.30;99.90
22364;DHT22;11349;53.412;-1.328;2023-04-25T03:14:10;2.40;99.90
22364;DHT22;11349;53.412;-1.328;2023-04-25T03:16:38;2.40;1.00
22364;DHT22;11349;53.412;-1.328;2023-04-25T03:19:04;2.40;1.00
22364;DHT22;11349;53.412;-1.328;2023-04-25T03:21:31;2.40;1.00
22364;DHT22;11349;53.412;-1.328;2023-04-25T03:23:59;2.30;1.00
22364;DHT22;11349;53.412;-1.328;2023-04-25T03:26:25;2.20;1.00
22364;DHT22;11349;53.412;-1.328;2023-04-25T03:28:50;2.30;1.00
22364;DHT22;11349;53.412;-1.328;2023-04-25T03:31:16;2.30;1.00
22364;DHT22;11349;53.412;-1.328;2023-04-25T03:33:42;2.20;1.00
22364;DHT22;11349;53.412;-1.328;2023-04-25T03:36:08;2.10;1.00
22364;DHT22;11349;53.412;-1.328;2023-04-25T03:38:35;2.10;1.00
22364;DHT22;11349;53.412;-1.328;2023-04-25T03:41:01;2.00;1.00
22364;DHT22;11349;53.412;-1.328;2023-04-25T03:43:27;2.00;1.00
22364;DHT22;11349;53.412;-1.328;2023-04-25T03:45:53;2.00;1.00
22364;DHT22;11349;53.412;-1.328;2023-04-25T03:48:18;2.10;1.00
22364;DHT22;11349;53.412;-1.328;2023-04-25T03:50:47;2.00;1.00
22364;DHT22;11349;53.412;-1.328;2023-04-25T03:53:12;2.00;1.00
22364;DHT22;11349;53.412;-1.328;2023-04-25T03:55:38;2.10;1.00
22364;DHT22;11349;53.412;-1.328;2023-04-25T03:58:04;2.00;1.00
22364;DHT22;11349;53.412;-1.328;2023-04-25T04:00:30;2.10;1.00
22364;DHT22;11349;53.412;-1.328;2023-04-25T04:02:56;2.00;1.00
22364;DHT22;11349;53.412;-1.328;2023-04-25T04:05:21;2.10;1.00
22364;DHT22;11349;53.412;-1.328;2023-04-25T04:07:47;2.10;1.00
22364;DHT22;11349;53.412;-1.328;2023-04-25T04:10:13;2.10;1.00
22364;DHT22;11349;53.412;-1.328;2023-04-25T04:12:39;2.10;1.00
22364;DHT22;11349;53.412;-1.328;2023-04-25T04:15:05;2.00;1.00
22364;DHT22;11349;53.412;-1.328;2023-04-25T04:17:31;2.00;1.00
22364;DHT22;11349;53.412;-1.328;2023-04-25T04:19:58;2.00;1.00
22364;DHT22;11349;53.412;-1.328;2023-04-25T04:22:24;2.00;1.00
22364;DHT22;11349;53.412;-1.328;2023-04-25T04:24:50;1.90;1.00
22364;DHT22;11349;53.412;-1.328;2023-04-25T04:27:19;1.90;1.00
22364;DHT22;11349;53.412;-1.328;2023-04-25T04:29:45;2.00;1.00
22364;DHT22;11349;53.412;-1.328;2023-04-25T04:32:13;2.00;1.00
22364;DHT22;11349;53.412;-1.328;2023-04-25T04:34:39;2.00;1.00
22364;DHT22;11349;53.412;-1.328;2023-04-25T04:37:05;2.00;1.00
22364;DHT22;11349;53.412;-1.328;2023-04-25T04:39:32;2.00;1.00
22364;DHT22;11349;53.412;-1.328;2023-04-25T04:41:58;2.00;1.00
22364;DHT22;11349;53.412;-1.328;2023-04-25T04:44:25;2.10;1.00
22364;DHT22;11349;53.412;-1.328;2023-04-25T04:46:51;2.10;1.00
22364;DHT22;11349;53.412;-1.328;2023-04-25T04:49:17;2.10;1.00
22364;DHT22;11349;53.412;-1.328;2023-04-25T04:51:43;2.10;1.00
22364;DHT22;11349;53.412;-1.328;2023-04-25T04:54:12;2.20;1.00
22364;DHT22;11349;53.412;-1.328;2023-04-25T04:56:38;2.20;1.00
22364;DHT22;11349;53.412;-1.328;2023-04-25T04:59:04;2.20;1.00
22364;DHT22;11349;53.412;-1.328;2023-04-25T05:01:30;2.20;1.00
22364;DHT22;11349;53.412;-1.328;2023-04-25T05:03:59;2.20;1.00
22364;DHT22;11349;53.412;-1.328;2023-04-25T05:06:27;2.20;1.00
22364;DHT22;11349;53.412;-1.328;2023-04-25T05:08:54;2.20;1.00
22364;DHT22;11349;53.412;-1.328;2023-04-25T05:11:21;2.20;1.00
22364;DHT22;11349;53.412;-1.328;2023-04-25T05:13:46;2.10;1.00
22364;DHT22;11349;53.412;-1.328;2023-04-25T05:16:13;2.20;1.00
22364;DHT22;11349;53.412;-1.328;2023-04-25T05:18:39;2.20;1.00
22364;DHT22;11349;53.412;-1.328;2023-04-25T05:21:05;2.20;1.00
22364;DHT22;11349;53.412;-1.328;2023-04-25T05:23:32;2.20;1.00
22364;DHT22;11349;53.412;-1.328;2023-04-25T05:25:57;2.10;99.90
22364;DHT22;11349;53.412;-1.328;2023-04-25T05:28:23;2.20;99.90
22364;DHT22;11349;53.412;-1.328;2023-04-25T05:30:49;2.20;99.90
22364;DHT22;11349;53.412;-1.328;2023-04-25T05:33:15;2.20;99.90
22364;DHT22;11349;53.412;-1.328;2023-04-25T05:35:42;2.30;99.90
22364;DHT22;11349;53.412;-1.328;2023-04-25T05:38:07;2.30;99.90
22364;DHT22;11349;53.412;-1.328;2023-04-25T05:40:33;2.30;99.90
22364;DHT22;11349;53.412;-1.328;2023-04-25T05:42:59;2.30;99.90
22364;DHT22;11349;53.412;-1.328;2023-04-25T05:45:25;2.40;99.90
22364;DHT22;11349;53.412;-1.328;2023-04-25T05:47:50;2.40;99.90
22364;DHT22;11349;53.412;-1.328;2023-04-25T05:50:16;2.40;99.90
22364;DHT22;11349;53.412;-1.328;2023-04-25T05:52:42;2.50;99.90
22364;DHT22;11349;53.412;-1.328;2023-04-25T05:55:08;2.60;99.90
22364;DHT22;11349;53.412;-1.328;2023-04-25T05:57:34;2.80;99.90
22364;DHT22;11349;53.412;-1.328;2023-04-25T06:00:00;3.00;99.90
22364;DHT22;11349;53.412;-1.328;2023-04-25T06:02:26;3.10;99.90
22364;DHT22;11349;53.412;-1.328;2023-04-25T06:04:52;3.30;86.10
22364;DHT22;11349;53.412;-1.328;2023-04-25T06:07:18;3.40;39.70
22364;DHT22;11349;53.412;-1.328;2023-04-25T06:09:44;3.50;1.00
22364;DHT22;11349;53.412;-1.328;2023-04-25T06:12:10;3.70;1.00
22364;DHT22;11349;53.412;-1.328;2023-04-25T06:14:36;3.70;1.00
22364;DHT22;11349;53.412;-1.328;2023-04-25T06:17:03;3.80;1.00
22364;DHT22;11349;53.412;-1.328;2023-04-25T06:19:32;3.90;1.00
22364;DHT22;11349;53.412;-1.328;2023-04-25T06:21:58;4.00;1.00
22364;DHT22;11349;53.412;-1.328;2023-04-25T06:24:24;4.10;1.00
22364;DHT22;11349;53.412;-1.328;2023-04-25T06:26:50;4.20;99.90
22364;DHT22;11349;53.412;-1.328;2023-04-25T06:29:16;4.30;99.90
22364;DHT22;11349;53.412;-1.328;2023-04-25T06:31:41;4.40;99.90
22364;DHT22;11349;53.412;-1.328;2023-04-25T06:34:07;4.50;99.90
22364;DHT22;11349;53.412;-1.328;2023-04-25T06:36:33;4.60;99.90
22364;DHT22;11349;53.412;-1.328;2023-04-25T06:38:58;4.70;32.70
22364;DHT22;11349;53.412;-1.328;2023-04-25T06:41:24;4.90;1.00
22364;DHT22;11349;53.412;-1.328;2023-04-25T06:43:50;5.10;99.90
22364;DHT22;11349;53.412;-1.328;2023-04-25T06:46:16;5.50;8.60
22364;DHT22;11349;53.412;-1.328;2023-04-25T06:48:41;5.90;1.00
22364;DHT22;11349;53.412;-1.328;2023-04-25T06:51:07;6.20;99.90
22364;DHT22;11349;53.412;-1.328;2023-04-25T06:53:33;6.80;1.00
22364;DHT22;11349;53.412;-1.328;2023-04-25T06:55:58;7.30;1.00
22364;DHT22;11349;53.412;-1.328;2023-04-25T06:58:24;7.70;99.90
22364;DHT22;11349;53.412;-1.328;2023-04-25T07:00:51;7.70;1.00
22364;DHT22;11349;53.412;-1.328;2023-04-25T07:03:17;8.30;84.90
22364;DHT22;11349;53.412;-1.328;2023-04-25T07:05:43;9.00;99.90
22364;DHT22;11349;53.412;-1.328;2023-04-25T07:08:08;9.20;24.70
22364;DHT22;11349;53.412;-1.328;2023-04-25T07:10:34;9.60;1.00
22364;DHT22;11349;53.412;-1.328;2023-04-25T07:13:00;9.90;99.90
22364;DHT22;11349;53.412;-1.328;2023-04-25T07:15:26;10.10;99.90
22364;DHT22;11349;53.412;-1.328;2023-04-25T07:17:51;10.60;99.90
22364;DHT22;11349;53.412;-1.328;2023-04-25T07:20:17;10.60;66.80
22364;DHT22;11349;53.412;-1.328;2023-04-25T07:22:43;10.90;1.00
22364;DHT22;11349;53.412;-1.328;2023-04-25T07:25:12;11.30;1.00
22364;DHT22;11349;53.412;-1.328;2023-04-25T07:27:38;11.80;1.00
22364;DHT22;11349;53.412;-1.328;2023-04-25T07:30:05;11.90;1.00
22364;DHT22;11349;53.412;-1.328;2023-04-25T07:32:31;12.10;1.00
22364;DHT22;11349;53.412;-1.328;2023-04-25T07:34:57;12.50;1.00
22364;DHT22;11349;53.412;-1.328;2023-04-25T07:37:23;12.40;99.90
22364;DHT22;11349;53.412;-1.328;2023-04-25T07:39:49;12.70;99.90
22364;DHT22;11349;53.412;-1.328;2023-04-25T07:42:14;12.60;99.90
22364;DHT22;11349;53.412;-1.328;2023-04-25T07:44:40;12.40;99.90
22364;DHT22;11349;53.412;-1.328;2023-04-25T07:47:08;12.80;99.90
22364;DHT22;11349;53.412;-1.328;2023-04-25T07:49:35;13.20;99.90
22364;DHT22;11349;53.412;-1.328;2023-04-25T07:52:01;13.80;99.90
22364;DHT22;11349;53.412;-1.328;2023-04-25T07:54:27;12.90;56.80
22364;DHT22;11349;53.412;-1.328;2023-04-25T07:56:56;13.50;99.90
22364;DHT22;11349;53.412;-1.328;2023-04-25T07:59:22;13.80;99.90
22364;DHT22;11349;53.412;-1.328;2023-04-25T08:01:48;13.70;99.90
22364;DHT22;11349;53.412;-1.328;2023-04-25T08:04:14;14.50;99.80
22364;DHT22;11349;53.412;-1.328;2023-04-25T08:06:40;14.30;57.20
22364;DHT22;11349;53.412;-1.328;2023-04-25T08:09:09;14.60;38.70
22364;DHT22;11349;53.412;-1.328;2023-04-25T08:11:35;14.40;1.00
22364;DHT22;11349;53.412;-1.328;2023-04-25T08:14:01;14.60;53.50
22364;DHT22;11349;53.412;-1.328;2023-04-25T08:16:27;14.60;1.00
22364;DHT22;11349;53.412;-1.328;2023-04-25T08:18:53;14.90;1.00
22364;DHT22;11349;53.412;-1.328;2023-04-25T08:21:19;14.80;1.00
22364;DHT22;11349;53.412;-1.328;2023-04-25T08:23:45;14.90;1.00
22364;DHT22;11349;53.412;-1.328;2023-04-25T08:26:11;15.20;1.00
22364;DHT22;11349;53.412;-1.328;2023-04-25T08:28:37;15.20;1.00
22364;DHT22;11349;53.412;-1.328;2023-04-25T08:31:03;15.40;1.00
22364;DHT22;11349;53.412;-1.328;2023-04-25T08:33:29;16.00;1.00
22364;DHT22;11349;53.412;-1.328;2023-04-25T08:35:55;16.00;1.00
22364;DHT22;11349;53.412;-1.328;2023-04-25T08:38:21;15.30;1.00
22364;DHT22;11349;53.412;-1.328;2023-04-25T08:40:50;15.60;1.00
22364;DHT22;11349;53.412;-1.328;2023-04-25T08:43:19;16.20;1.00
22364;DHT22;11349;53.412;-1.328;2023-04-25T08:45:45;16.80;1.00
22364;DHT22;11349;53.412;-1.328;2023-04-25T08:48:13;16.80;1.00
22364;DHT22;11349;53.412;-1.328;2023-04-25T08:53:12;17.30;1.00
22364;DHT22;11349;53.412;-1.328;2023-04-25T08:55:44;17.20;1.00
22364;DHT22;11349;53.412;-1.328;2023-04-25T08:58:11;17.00;1.00
22364;DHT22;11349;53.412;-1.328;2023-04-25T09:00:38;16.60;1.00
22364;DHT22;11349;53.412;-1.328;2023-04-25T09:03:04;16.60;1.00
22364;DHT22;11349;53.412;-1.328;2023-04-25T09:05:30;17.10;1.00
22364;DHT22;11349;53.412;-1.328;2023-04-25T09:07:56;15.30;99.90
22364;DHT22;11349;53.412;-1.328;2023-04-25T09:10:23;14.70;99.90
22364;DHT22;11349;53.412;-1.328;2023-04-25T09:13:05;15.10;99.90
22364;DHT22;11349;53.412;-1.328;2023-04-25T09:15:32;16.30;99.90
22364;DHT22;11349;53.412;-1.328;2023-04-25T09:17:59;16.00;99.90
22364;DHT22;11349;53.412;-1.328;2023-04-25T09:20:25;16.00;99.90
22364;DHT22;11349;53.412;-1.328;2023-04-25T09:23:04;14.60;99.90
22364;DHT22;11349;53.412;-1.328;2023-04-25T09:25:37;15.00;99.90
22364;DHT22;11349;53.412;-1.328;2023-04-25T09:28:05;13.70;99.90
22364;DHT22;11349;53.412;-1.328;2023-04-25T09:30:33;15.10;99.90
22364;DHT22;11349;53.412;-1.328;2023-04-25T09:33:06;14.30;99.90
22364;DHT22;11349;53.412;-1.328;2023-04-25T09:35:40;13.80;99.90
22364;DHT22;11349;53.412;-1.328;2023-04-25T09:38:14;14.20;99.90
22364;DHT22;11349;53.412;-1.328;2023-04-25T09:40:41;14.70;99.90
22364;DHT22;11349;53.412;-1.328;2023-04-25T09:43:22;13.90;99.90
22364;DHT22;11349;53.412;-1.328;2023-04-25T09:45:49;14.00;99.90
22364;DHT22;11349;53.412;-1.328;2023-04-25T09:48:18;13.60;99.90
22364;DHT22;11349;53.412;-1.328;2023-04-25T09:50:44;12.20;99.90
22364;DHT22;11349;53.412;-1.328;2023-04-25T09:53:13;13.30;99.90
22364;DHT22;11349;53.412;-1.328;2023-04-25T09:55:39;13.20;99.90
22364;DHT22;11349;53.412;-1.328;2023-04-25T09:58:06;14.10;99.90
22364;DHT22;11349;53.412;-1.328;2023-04-25T10:00:33;13.80;99.90
22364;DHT22;11349;53.412;-1.328;2023-04-25T10:03:01;12.60;99.90
22364;DHT22;11349;53.412;-1.328;2023-04-25T10:05:32;11.50;99.90
22364;DHT22;11349;53.412;-1.328;2023-04-25T10:08:03;11.80;99.90
22364;DHT22;11349;53.412;-1.328;2023-04-25T10:10:32;11.80;99.90
22364;DHT22;11349;53.412;-1.328;2023-04-25T10:13:05;11.00;99.90
22364;DHT22;11349;53.412;-1.328;2023-04-25T10:15:34;12.30;99.90
22364;DHT22;11349;53.412;-1.328;2023-04-25T10:18:02;11.90;99.90
22364;DHT22;11349;53.412;-1.328;2023-04-25T10:20:28;12.10;99.90
22364;DHT22;11349;53.412;-1.328;2023-04-25T10:22:58;11.40;99.90
22364;DHT22;11349;53.412;-1.328;2023-04-25T10:25:29;11.30;99.90
22364;DHT22;11349;53.412;-1.328;2023-04-25T10:27:55;12.20;99.90
22364;DHT22;11349;53.412;-1.328;2023-04-25T10:30:21;11.40;99.90
22364;DHT22;11349;53.412;-1.328;2023-04-25T10:32:47;11.40;99.90
22364;DHT22;11349;53.412;-1.328;2023-04-25T10:35:18;11.50;99.90
22364;DHT22;11349;53.412;-1.328;2023-04-25T10:38:16;11.40;99.90
22364;DHT22;11349;53.412;-1.328;2023-04-25T10:41:03;10.80;99.90
22364;DHT22;11349;53.412;-1.328;2023-04-25T10:43:36;10.50;99.90
22364;DHT22;11349;53.412;-1.328;2023-04-25T10:46:13;10.20;99.90
22364;DHT22;11349;53.412;-1.328;2023-04-25T10:48:49;10.70;99.90
22364;DHT22;11349;53.412;-1.328;2023-04-25T10:51:27;11.40;99.90
22364;DHT22;11349;53.412;-1.328;2023-04-25T10:56:26;11.70;99.90
22364;DHT22;11349;53.412;-1.328;2023-04-25T10:59:08;12.00;99.90
22364;DHT22;11349;53.412;-1.328;2023-04-25T11:01:43;12.10;99.90
22364;DHT22;11349;53.412;-1.328;2023-04-25T11:04:24;12.10;99.90
22364;DHT22;11349;53.412;-1.328;2023-04-25T11:09:33;11.80;99.90
22364;DHT22;11349;53.412;-1.328;2023-04-25T11:11:59;11.50;99.90
22364;DHT22;11349;53.412;-1.328;2023-04-25T11:14:26;11.30;99.90
22364;DHT22;11349;53.412;-1.328;2023-04-25T11:16:56;11.80;99.90
22364;DHT22;11349;53.412;-1.328;2023-04-25T11:19:23;11.20;99.90
22364;DHT22;11349;53.412;-1.328;2023-04-25T11:21:49;10.80;99.90
22364;DHT22;11349;53.412;-1.328;2023-04-25T11:24:18;11.30;99.90
22364;DHT22;11349;53.412;-1.328;2023-04-25T11:26:47;11.70;99.90
22364;DHT22;11349;53.412;-1.328;2023-04-25T11:29:15;11.70;99.90
22364;DHT22;11349;53.412;-1.328;2023-04-25T11:31:44;11.70;99.90
22364;DHT22;11349;53.412;-1.328;2023-04-25T11:34:19;11.70;99.90
22364;DHT22;11349;53.412;-1.328;2023-04-25T11:36:46;11.80;99.90
22364;DHT22;11349;53.412;-1.328;2023-04-25T11:39:12;11.40;99.90
22364;DHT22;11349;53.412;-1.328;2023-04-25T11:41:38;12.00;99.90
22364;DHT22;11349;53.412;-1.328;2023-04-25T11:44:05;11.40;99.90
22364;DHT22;11349;53.412;-1.328;2023-04-25T11:46:33;11.30;99.90
22364;DHT22;11349;53.412;-1.328;2023-04-25T11:48:59;11.40;99.90
22364;DHT22;11349;53.412;-1.328;2023-04-25T11:51:28;11.40;99.90
22364;DHT22;11349;53.412;-1.328;2023-04-25T11:53:54;11.50;99.90
22364;DHT22;11349;53.412;-1.328;2023-04-25T11:56:20;11.70;99.90
22364;DHT22;11349;53.412;-1.328;2023-04-25T11:59:03;11.70;99.90
22364;DHT22;11349;53.412;-1.328;2023-04-25T12:01:31;11.00;99.90
22364;DHT22;11349;53.412;-1.328;2023-04-25T12:03:58;11.10;99.90
22364;DHT22;11349;53.412;-1.328;2023-04-25T12:06:28;10.90;99.90
22364;DHT22;11349;53.412;-1.328;2023-04-25T12:09:01;10.70;99.90
22364;DHT22;11349;53.412;-1.328;2023-04-25T12:11:27;11.20;99.90
22364;DHT22;11349;53.412;-1.328;2023-04-25T12:13:52;11.40;99.90
22364;DHT22;11349;53.412;-1.328;2023-04-25T12:16:19;11.50;99.90
22364;DHT22;11349;53.412;-1.328;2023-04-25T12:18:45;11.60;99.90
22364;DHT22;11349;53.412;-1.328;2023-04-25T12:21:10;11.70;99.90
22364;DHT22;11349;53.412;-1.328;2023-04-25T12:23:38;11.50;99.90
22364;DHT22;11349;53.412;-1.328;2023-04-25T12:26:05;11.30;99.90
22364;DHT22;11349;53.412;-1.328;2023-04-25T12:28:32;11.40;99.90
22364;DHT22;11349;53.412;-1.328;2023-04-25T12:31:03;10.90;99.90
22364;DHT22;11349;53.412;-1.328;2023-04-25T12:33:36;11.00;99.90
22364;DHT22;11349;53.412;-1.328;2023-04-25T12:36:04;11.00;99.90
22364;DHT22;11349;53.412;-1.328;2023-04-25T12:38:37;11.20;99.90
22364;DHT22;11349;53.412;-1.328;2023-04-25T12:41:03;10.80;99.90
22364;DHT22;11349;53.412;-1.328;2023-04-25T12:43:29;10.90;99.90
22364;DHT22;11349;53.412;-1.328;2023-04-25T12:45:55;11.20;99.90
22364;DHT22;11349;53.412;-1.328;2023-04-25T12:48:22;11.40;99.90
22364;DHT22;11349;53.412;-1.328;2023-04-25T12:50:49;11.00;99.90
22364;DHT22;11349;53.412;-1.328;2023-04-25T12:53:24;11.00;99.90
22364;DHT22;11349;53.412;-1.328;2023-04-25T12:55:50;10.90;99.90
22364;DHT22;11349;53.412;-1.328;2023-04-25T12:58:18;11.00;99.90
22364;DHT22;11349;53.412;-1.328;2023-04-25T13:00:44;11.00;99.90
22364;DHT22;11349;53.412;-1.328;2023-04-25T13:03:11;11.20;99.90
22364;DHT22;11349;53.412;-1.328;2023-04-25T13:05:38;11.60;99.90
22364;DHT22;11349;53.412;-1.328;2023-04-25T13:08:06;11.60;99.90
22364;DHT22;11349;53.412;-1.328;2023-04-25T13:10:32;11.40;99.90
22364;DHT22;11349;53.412;-1.328;2023-04-25T13:12:59;11.30;99.90
22364;DHT22;11349;53.412;-1.328;2023-04-25T13:15:25;11.20;99.90
22364;DHT22;11349;53.412;-1.328;2023-04-25T13:17:50;11.20;99.90
22364;DHT22;11349;53.412;-1.328;2023-04-25T13:20:16;11.10;99.90
22364;DHT22;11349;53.412;-1.328;2023-04-25T13:22:44;11.00;99.90
22364;DHT22;11349;53.412;-1.328;2023-04-25T13:25:11;11.00;99.90
22364;DHT22;11349;53.412;-1.328;2023-04-25T13:27:37;11.20;99.90
22364;DHT22;11349;53.412;-1.328;2023-04-25T13:30:04;11.50;99.90
22364;DHT22;11349;53.412;-1.328;2023-04-25T13:32:39;12.00;99.90
22364;DHT22;11349;53.412;-1.328;2023-04-25T13:35:06;11.90;99.90
22364;DHT22;11349;53.412;-1.328;2023-04-25T13:37:32;11.80;99.90
22364;DHT22;11349;53.412;-1.328;2023-04-25T13:40:09;11.40;99.90
22364;DHT22;11349;53.412;-1.328;2023-04-25T13:42:37;11.50;99.90
22364;DHT22;11349;53.412;-1.328;2023-04-25T13:45:03;11.70;99.90
22364;DHT22;11349;53.412;-1.328;2023-04-25T13:47:29;11.60;99.90
22364;DHT22;11349;53.412;-1.328;2023-04-25T13:49:55;11.60;99.90
22364;DHT22;11349;53.412;-1.328;2023-04-25T13:52:21;11.70;99.90
22364;DHT22;11349;53.412;-1.328;2023-04-25T13:54:49;11.80;99.90
22364;DHT22;11349;53.412;-1.328;2023-04-25T13:57:16;11.70;99.90
22364;DHT22;11349;53.412;-1.328;2023-04-25T13:59:41;11.30;99.90
22364;DHT22;11349;53.412;-1.328;2023-04-25T14:02:07;11.30;99.90
22364;DHT22;11349;53.412;-1.328;2023-04-25T14:04:33;11.60;99.90
22364;DHT22;11349;53.412;-1.328;2023-04-25T14:06:59;11.80;99.90
22364;DHT22;11349;53.412;-1.328;2023-04-25T14:09:25;11.50;96.80
22364;DHT22;11349;53.412;-1.328;2023-04-25T14:11:52;11.40;86.60
22364;DHT22;11349;53.412;-1.328;2023-04-25T14:14:19;11.60;95.10
22364;DHT22;11349;53.412;-1.328;2023-04-25T14:16:46;11.80;99.90
22364;DHT22;11349;53.412;-1.328;2023-04-25T14:19:14;12.00;99.90
22364;DHT22;11349;53.412;-1.328;2023-04-25T14:21:39;12.50;99.90
22364;DHT22;11349;53.412;-1.328;2023-04-25T14:24:06;12.40;99.90
22364;DHT22;11349;53.412;-1.328;2023-04-25T14:26:33;12.40;99.90
22364;DHT22;11349;53.412;-1.328;2023-04-25T14:28:59;12.50;99.90
22364;DHT22;11349;53.412;-1.328;2023-04-25T14:31:24;12.50;99.90
22364;DHT22;11349;53.412;-1.328;2023-04-25T14:33:50;12.30;99.90
22364;DHT22;11349;53.412;-1.328;2023-04-25T14:36:16;12.30;99.90
22364;DHT22;11349;53.412;-1.328;2023-04-25T14:38:42;12.00;95.80
22364;DHT22;11349;53.412;-1.328;2023-04-25T14:41:08;12.00;99.90
22364;DHT22;11349;53.412;-1.328;2023-04-25T14:43:34;12.10;96.50
22364;DHT22;11349;53.412;-1.328;2023-04-25T14:46:01;11.80;82.80
22364;DHT22;11349;53.412;-1.328;2023-04-25T14:48:28;11.50;82.50
22364;DHT22;11349;53.412;-1.328;2023-04-25T14:50:53;11.60;91.20
22364;DHT22;11349;53.412;-1.328;2023-04-25T14:53:20;11.70;98.10
22364;DHT22;11349;53.412;-1.328;2023-04-25T14:55:46;11.70;85.90
22364;DHT22;11349;53.412;-1.328;2023-04-25T14:58:12;11.80;93.60
22364;DHT22;11349;53.412;-1.328;2023-04-25T15:00:38;11.70;80.30
22364;DHT22;11349;53.412;-1.328;2023-04-25T15:03:04;11.50;87.90
22364;DHT22;11349;53.412;-1.328;2023-04-25T15:05:30;11.40;74.40
22364;DHT22;11349;53.412;-1.328;2023-04-25T15:07:55;11.50;87.90
22364;DHT22;11349;53.412;-1.328;2023-04-25T15:10:22;11.60;86.40
22364;DHT22;11349;53.412;-1.328;2023-04-25T15:12:48;11.90;98.00
22364;DHT22;11349;53.412;-1.328;2023-04-25T15:15:14;11.90;87.60
22364;DHT22;11349;53.412;-1.328;2023-04-25T15:17:41;12.00;94.60
22364;DHT22;11349;53.412;-1.328;2023-04-25T15:20:09;11.90;81.50
22364;DHT22;11349;53.412;-1.328;2023-04-25T15:22:36;12.00;86.60
22364;DHT22;11349;53.412;-1.328;2023-04-25T15:25:02;11.90;95.30
22364;DHT22;11349;53.412;-1.328;2023-04-25T15:27:28;11.90;95.90
22364;DHT22;11349;53.412;-1.328;2023-04-25T15:29:54;12.00;95.00
22364;DHT22;11349;53.412;-1.328;2023-04-25T15:32:20;12.10;99.90
22364;DHT22;11349;53.412;-1.328;2023-04-25T15:34:46;12.40;99.90